createdAt,value
2023-04-18T00:00:49.600Z,82.91
2023-04-18T00:06:12.978Z,82.98
2023-04-18T00:11:35.178Z,82.99
2023-04-18T00:16:57.445Z,83.02
2023-04-18T00:22:22.632Z,83.05
2023-04-18T00:27:44.363Z,83.25
2023-04-18T00:33:06.559Z,83.45
2023-04-18T00:38:28.626Z,83.57
2023-04-18T00:43:50.380Z,83.46
2023-04-18T00:49:12.578Z,83.53
2023-04-18T00:54:35.616Z,83.47
2023-04-18T00:59:57.644Z,83.62
2023-04-18T01:05:21.395Z,83.74
2023-04-18T01:10:45.916Z,83.81
2023-04-18T01:16:10.720Z,83.95
2023-04-18T01:21:37.457Z,84.08
2023-04-18T01:26:59.939Z,84.02
2023-04-18T01:32:22.352Z,84.07
2023-04-18T01:37:44.407Z,84.03
2023-04-18T01:43:06.434Z,83.97
2023-04-18T01:48:28.382Z,83.98
2023-04-18T01:53:50.785Z,84.00
2023-04-18T01:59:12.412Z,83.94
2023-04-18T02:04:34.146Z,83.89
2023-04-18T02:09:56.272Z,83.97
2023-04-18T02:15:18.100Z,83.90
2023-04-18T02:20:40.236Z,84.02
2023-04-18T02:26:03.771Z,83.86
2023-04-18T02:31:25.620Z,84.06
2023-04-18T02:36:47.324Z,83.97
2023-04-18T02:42:09.160Z,84.06
2023-04-18T02:47:35.423Z,83.80
2023-04-18T02:53:05.557Z,84.08
2023-04-18T02:58:37.332Z,84.11
2023-04-18T03:04:19.248Z,84.13
2023-04-18T03:09:52.386Z,84.05
2023-04-18T03:15:18.782Z,84.14
2023-04-18T03:20:41.469Z,84.05
2023-04-18T03:26:06.002Z,84.01
2023-04-18T03:31:31.091Z,84.07
2023-04-18T03:36:53.188Z,84.28
2023-04-18T03:42:14.809Z,84.06
2023-04-18T03:47:38.056Z,83.93
2023-04-18T03:53:00.966Z,83.75
2023-04-18T03:58:24.430Z,83.69
2023-04-18T04:03:47.944Z,83.66
2023-04-18T04:09:10.206Z,83.77
2023-04-18T04:14:32.709Z,83.74
2023-04-18T04:19:55.325Z,83.77
2023-04-18T04:25:19.512Z,83.69
2023-04-18T04:30:41.898Z,83.58
2023-04-18T04:36:04.033Z,83.58
2023-04-18T04:41:27.968Z,83.60
2023-04-18T04:46:50.001Z,83.37
2023-04-18T04:52:15.444Z,83.35
2023-04-18T04:57:37.895Z,83.08
2023-04-18T05:03:09.108Z,83.05
2023-04-18T05:08:31.032Z,82.99
2023-04-18T05:13:53.086Z,83.14
2023-04-18T05:19:16.420Z,82.93
2023-04-18T05:24:38.411Z,82.59
2023-04-18T05:30:00.104Z,82.43
2023-04-18T05:35:21.971Z,82.03
2023-04-18T05:40:44.240Z,81.63
2023-04-18T05:46:06.583Z,81.25
2023-04-18T05:51:28.829Z,80.92
2023-04-18T05:56:50.336Z,80.74
2023-04-18T06:02:13.768Z,80.54
2023-04-18T06:07:35.999Z,80.22
2023-04-18T06:12:57.922Z,79.98
2023-04-18T06:18:22.061Z,79.23
2023-04-18T06:23:43.900Z,78.70
2023-04-18T06:29:05.628Z,77.92
2023-04-18T06:34:27.836Z,77.62
2023-04-18T06:39:49.379Z,76.09
2023-04-18T06:45:12.297Z,75.68
2023-04-18T06:50:35.230Z,75.09
2023-04-18T06:55:58.425Z,73.73
2023-04-18T07:01:21.193Z,72.57
2023-04-18T07:06:43.017Z,71.15
2023-04-18T07:12:05.265Z,70.13
2023-04-18T07:17:27.260Z,69.53
2023-04-18T07:22:49.028Z,68.41
2023-04-18T07:28:10.749Z,67.56
2023-04-18T07:33:34.062Z,67.28
2023-04-18T07:38:56.637Z,66.47
2023-04-18T07:44:18.802Z,66.38
2023-04-18T07:49:40.682Z,64.92
2023-04-18T07:55:02.512Z,63.50
2023-04-18T08:00:24.589Z,63.71
2023-04-18T08:05:46.241Z,64.41
2023-04-18T08:11:08.094Z,64.12
2023-04-18T08:16:30.116Z,64.23
2023-04-18T08:21:52.260Z,63.36
2023-04-18T08:27:14.190Z,62.93
2023-04-18T08:32:36.940Z,63.40
2023-04-18T08:37:58.947Z,64.29
2023-04-18T08:43:21.278Z,62.91
2023-04-18T08:48:43.208Z,62.41
2023-04-18T08:54:06.408Z,61.94
2023-04-18T08:59:28.174Z,61.85
2023-04-18T09:04:53.809Z,61.06
2023-04-18T09:10:46.742Z,61.30
2023-04-18T09:16:09.314Z,60.27
2023-04-18T09:21:32.902Z,58.99
2023-04-18T09:26:57.389Z,59.40
2023-04-18T09:32:20.926Z,58.43
2023-04-18T09:37:51.368Z,58.22
2023-04-18T09:43:20.703Z,57.09
2023-04-18T09:48:42.849Z,56.93
2023-04-18T09:54:07.783Z,56.57
2023-04-18T09:59:47.852Z,56.29
2023-04-18T10:05:09.833Z,55.29
2023-04-18T10:10:32.751Z,55.14
2023-04-18T10:15:55.198Z,53.61
2023-04-18T10:21:17.488Z,53.25
2023-04-18T10:26:47.284Z,51.23
2023-04-18T10:32:09.394Z,49.36
2023-04-18T10:37:35.582Z,50.45
2023-04-18T10:42:58.354Z,48.87
2023-04-18T10:48:31.436Z,49.16
2023-04-18T10:53:57.268Z,47.75
2023-04-18T10:59:22.838Z,45.58
2023-04-18T11:04:52.471Z,44.44
2023-04-18T11:10:17.316Z,44.12
2023-04-18T11:15:40.236Z,43.10
2023-04-18T11:21:04.079Z,43.91
2023-04-18T11:26:27.597Z,45.24
2023-04-18T11:31:54.581Z,46.36
2023-04-18T11:37:19.096Z,45.16
2023-04-18T11:42:41.696Z,43.95
2023-04-18T11:48:03.986Z,43.32
2023-04-18T11:53:33.858Z,42.92
2023-04-18T11:58:56.542Z,43.46
2023-04-18T12:04:19.253Z,43.26
2023-04-18T12:09:42.299Z,42.85
2023-04-18T12:15:08.135Z,42.78
2023-04-18T12:20:35.442Z,42.26
2023-04-18T12:26:07.405Z,41.12
2023-04-18T12:31:29.226Z,41.43
2023-04-18T12:36:54.010Z,41.77
2023-04-18T12:42:16.124Z,40.75
2023-04-18T12:47:39.406Z,39.77
2023-04-18T12:53:01.853Z,39.52
2023-04-18T12:58:23.725Z,38.35
2023-04-18T13:03:53.484Z,39.22
2023-04-18T13:09:22.238Z,39.53
2023-04-18T13:14:44.311Z,40.70
2023-04-18T13:20:13.267Z,40.89
2023-04-18T13:25:35.058Z,41.14
2023-04-18T13:30:57.171Z,41.41
2023-04-18T13:36:18.998Z,41.55
2023-04-18T13:41:41.235Z,41.48
2023-04-18T13:47:05.196Z,41.94
2023-04-18T13:52:26.902Z,42.10
2023-04-18T13:57:48.712Z,42.15
2023-04-18T14:03:11.047Z,42.07
2023-04-18T14:08:33.042Z,41.99
2023-04-18T14:13:54.923Z,41.79
2023-04-18T14:19:18.146Z,41.48
2023-04-18T14:24:40.193Z,40.82
2023-04-18T14:30:02.211Z,40.56
2023-04-18T14:35:24.309Z,41.38
2023-04-18T14:40:46.986Z,42.28
2023-04-18T14:46:16.806Z,43.45
2023-04-18T14:51:39.055Z,44.61
2023-04-18T14:57:01.686Z,44.16
2023-04-18T15:02:23.582Z,43.50
2023-04-18T15:07:45.844Z,43.51
2023-04-18T15:13:11.665Z,43.34
2023-04-18T15:18:34.036Z,43.74
2023-04-18T15:23:55.784Z,43.96
2023-04-18T15:29:17.485Z,44.19
2023-04-18T15:34:39.052Z,44.70
2023-04-18T15:40:00.839Z,45.24
2023-04-18T15:45:22.375Z,45.57
2023-04-18T15:50:51.417Z,45.69
2023-04-18T15:56:14.073Z,45.98
2023-04-18T16:01:36.705Z,46.12
2023-04-18T16:06:58.838Z,46.89
2023-04-18T16:12:20.638Z,47.22
2023-04-18T16:17:42.671Z,48.05
2023-04-18T16:23:04.866Z,50.28
2023-04-18T16:28:27.025Z,51.39
2023-04-18T16:33:48.984Z,52.51
2023-04-18T16:39:11.090Z,53.54
2023-04-18T16:44:33.395Z,54.41
2023-04-18T16:49:55.652Z,55.23
2023-04-18T16:55:17.580Z,55.70
2023-04-18T17:00:39.721Z,56.14
2023-04-18T17:06:01.884Z,56.34
2023-04-18T17:11:23.766Z,56.42
2023-04-18T17:16:45.915Z,56.92
2023-04-18T17:22:08.126Z,57.55
2023-04-18T17:27:30.241Z,57.86
2023-04-18T17:32:52.960Z,58.14
2023-04-18T17:38:14.698Z,58.73
2023-04-18T17:43:36.955Z,58.98
2023-04-18T17:48:58.878Z,58.65
2023-04-18T17:54:20.907Z,58.49
2023-04-18T17:59:42.922Z,58.23
2023-04-18T18:05:05.671Z,57.98
2023-04-18T18:10:27.499Z,57.76
2023-04-18T18:15:49.527Z,57.79
2023-04-18T18:21:21.403Z,58.40
2023-04-18T18:26:43.239Z,58.88
2023-04-18T18:32:06.363Z,59.94
2023-04-18T18:37:28.416Z,60.66
2023-04-18T18:42:51.624Z,61.17
2023-04-18T18:48:14.807Z,61.93
2023-04-18T18:53:38.408Z,62.70
2023-04-18T18:59:01.849Z,63.53
2023-04-18T19:04:24.332Z,64.24
2023-04-18T19:09:47.097Z,65.45
2023-04-18T19:15:09.725Z,66.38
2023-04-18T19:20:31.850Z,67.27
2023-04-18T19:25:53.495Z,67.72
2023-04-18T19:31:15.544Z,67.86
2023-04-18T19:36:37.651Z,68.27
2023-04-18T19:41:59.363Z,68.43
2023-04-18T19:47:21.223Z,69.00
2023-04-18T19:52:43.253Z,69.13
2023-04-18T19:58:06.055Z,69.26
2023-04-18T20:03:27.936Z,69.35
2023-04-18T20:08:49.517Z,69.57
2023-04-18T20:14:14.450Z,69.59
2023-04-18T20:19:36.587Z,69.75
2023-04-18T20:24:58.508Z,69.61
2023-04-18T20:30:21.882Z,69.64
2023-04-18T20:35:44.680Z,69.65
2023-04-18T20:41:06.416Z,69.47
2023-04-18T20:46:28.473Z,69.68
2023-04-18T20:51:50.423Z,69.52
2023-04-18T20:57:12.229Z,69.53
2023-04-18T21:02:34.431Z,69.03
2023-04-18T21:07:56.193Z,69.21
2023-04-18T21:13:17.944Z,69.14
2023-04-18T21:18:39.713Z,68.89
2023-04-18T21:24:02.170Z,68.94
2023-04-18T21:29:23.985Z,68.91
2023-04-18T21:34:46.647Z,68.85
2023-04-18T21:40:09.273Z,68.88
2023-04-18T21:45:31.236Z,68.84
2023-04-18T21:50:56.192Z,69.04
2023-04-18T21:56:18.164Z,69.12
2023-04-18T22:01:39.997Z,68.79
2023-04-18T22:07:02.640Z,68.74
2023-04-18T22:12:24.721Z,68.90
2023-04-18T22:17:50.345Z,69.02
2023-04-18T22:23:12.460Z,69.14
2023-04-18T22:28:34.349Z,69.28
2023-04-18T22:33:56.224Z,69.23
2023-04-18T22:39:18.048Z,69.29
2023-04-18T22:44:40.538Z,69.21
2023-04-18T22:50:02.695Z,69.29
2023-04-18T22:55:27.448Z,69.60
2023-04-18T23:00:48.983Z,69.57
2023-04-18T23:06:10.774Z,69.83
2023-04-18T23:11:32.685Z,69.93
2023-04-18T23:16:54.431Z,70.13
2023-04-18T23:22:16.256Z,70.51
2023-04-18T23:27:38.220Z,70.65
2023-04-18T23:33:00.369Z,70.80
2023-04-18T23:38:22.365Z,71.23
2023-04-18T23:43:45.000Z,71.43
2023-04-18T23:49:06.505Z,71.75
2023-04-18T23:54:28.256Z,72.11
2023-04-18T23:59:50.134Z,72.27
